Time;durP1;ratioP1;P1;durP2;ratioP2;P2;SDS_P1;SDS_P2;PMS_P1;PMS_P2;Temp;Humidity;BMP_temperature;BMP_pressure;BME280_temperature;BME280_humidity;BME280_pressure;Samples;Min_cycle;Max_cycle;Signal;HPM_P1;HPM_P2
2022/01/26 00:00:43;;;;;;;59.83;25.42;;;3.10;99.90;;;;;;5069378;28;20044;-73
2022/01/26 00:06:01;;;;;;;65.95;27.70;;;3.10;99.90;;;;;;5055464;28;20036;-74
2022/01/26 00:08:26;;;;;;;67.35;28.35;;;3.10;99.90;;;;;;5050660;28;20047;-73
2022/01/26 00:10:52;;;;;;;61.35;27.10;;;3.10;99.90;;;;;;5050076;28;20036;-74
2022/01/26 00:13:18;;;;;;;62.63;28.15;;;3.10;99.90;;;;;;5067483;28;20045;-74
2022/01/26 00:15:43;;;;;;;66.40;27.55;;;3.00;99.90;;;;;;5068728;28;20043;-74
2022/01/26 00:18:09;;;;;;;64.17;28.07;;;3.00;99.90;;;;;;5073477;28;20044;-74
2022/01/26 00:20:42;;;;;;;66.80;26.88;;;3.00;99.90;;;;;;5042358;28;20303;-73
2022/01/26 00:38:54;;;;;;;62.88;26.75;;;3.10;99.90;;;;;;5065191;28;20830;-73
2022/01/26 00:41:33;;;;;;;64.55;27.10;;;3.00;99.90;;;;;;5047917;28;20076;-74
2022/01/26 00:43:59;;;;;;;66.40;28.10;;;3.00;99.90;;;;;;5067841;28;20439;-74
2022/01/26 00:46:25;;;;;;;;;;;3.00;99.90;;;;;;5069320;28;20043;-73
2022/01/26 00:48:52;;;;;;;62.13;25.30;;;3.10;99.90;;;;;;5067088;28;19920;-73
2022/01/26 00:51:21;;;;;;;64.28;26.92;;;3.00;99.90;;;;;;5091898;28;20060;-73
2022/01/26 00:53:54;;;;;;;65.95;28.13;;;3.00;99.90;;;;;;5067523;28;20032;-78
2022/01/26 00:56:20;;;;;;;63.72;28.08;;;3.10;99.90;;;;;;5048470;28;20048;-79
2022/01/26 00:58:47;;;;;;;59.55;25.58;;;3.00;99.90;;;;;;5047919;28;20040;-78
2022/01/26 01:01:13;;;;;;;61.78;25.70;;;3.10;99.90;;;;;;5063695;28;20083;-78
2022/01/26 01:03:43;;;;;;;69.70;28.52;;;3.10;99.90;;;;;;5045615;28;20076;-78
2022/01/26 01:08:35;;;;;;;76.00;32.08;;;3.10;99.90;;;;;;5066293;28;20076;-78
2022/01/26 01:11:01;;;;;;;74.65;30.98;;;3.00;99.90;;;;;;5049789;28;20502;-78
2022/01/26 01:13:37;;;;;;;61.03;27.52;;;3.00;99.90;;;;;;5050439;28;20033;-78
2022/01/26 01:16:05;;;;;;;68.90;27.95;;;3.00;99.90;;;;;;5034175;28;20045;-77
2022/01/26 01:27:03;;;;;;;69.75;28.85;;;2.90;99.90;;;;;;5061640;28;20044;-77
2022/01/26 01:29:45;;;;;;;74.88;30.67;;;3.00;99.90;;;;;;5056119;28;20096;-77
2022/01/26 01:32:25;;;;;;;69.47;29.05;;;2.90;99.90;;;;;;5069597;28;20044;-77
2022/01/26 01:34:50;;;;;;;63.83;26.83;;;3.00;99.90;;;;;;5037097;28;20384;-76
2022/01/26 01:37:17;;;;;;;70.43;29.70;;;2.90;99.90;;;;;;5062335;28;20039;-77
2022/01/26 01:39:43;;;;;;;68.60;28.85;;;3.00;99.90;;;;;;5031151;28;20332;-78
2022/01/26 01:42:09;;;;;;;70.03;29.15;;;3.00;99.90;;;;;;5070454;28;20047;-77
2022/01/26 01:44:41;;;;;;;67.18;28.10;;;2.90;99.90;;;;;;5051369;28;20040;-77
2022/01/26 01:47:07;;;;;;;69.18;28.73;;;2.90;99.90;;;;;;5070717;28;20037;-77
2022/01/26 01:49:34;;;;;;;65.70;27.23;;;3.00;99.90;;;;;;5037274;28;20039;-77
2022/01/26 01:52:03;;;;;;;66.72;27.75;;;2.90;99.90;;;;;;5073992;28;20071;-78
2022/01/26 01:54:29;;;;;;;64.18;27.48;;;2.90;99.90;;;;;;5072569;28;20803;-78
2022/01/26 01:56:58;;;;;;;72.97;29.52;;;3.00;99.90;;;;;;5041678;28;20201;-79
2022/01/26 01:59:26;;;;;;;63.63;26.75;;;3.00;99.90;;;;;;5072697;28;20064;-79
2022/01/26 02:01:52;;;;;;;65.60;28.23;;;3.00;99.90;;;;;;5069912;28;20115;-78
2022/01/26 02:04:18;;;;;;;64.20;26.30;;;3.00;99.90;;;;;;5049545;28;20148;-79
2022/01/26 02:06:43;;;;;;;67.20;27.45;;;2.90;99.90;;;;;;5068757;28;20044;-79
2022/01/26 02:09:11;;;;;;;68.32;27.95;;;3.00;99.90;;;;;;5068348;28;20041;-79
2022/01/26 02:11:48;;;;;;;64.20;27.25;;;3.00;99.90;;;;;;5071301;28;20044;-79
2022/01/26 02:14:22;;;;;;;67.82;28.20;;;3.00;99.90;;;;;;5073292;28;20452;-79
2022/01/26 02:52:10;;;;;;;81.88;32.10;;;3.00;99.90;;;;;;5069388;28;20068;-79
2022/01/26 02:55:11;;;;;;;79.38;31.52;;;3.00;99.90;;;;;;5073552;28;20036;-78
2022/01/26 03:02:56;;;;;;;72.80;28.65;;;2.90;99.90;;;;;;5066601;28;20139;-78
2022/01/26 03:05:27;;;;;;;73.22;29.95;;;2.90;99.90;;;;;;5068591;28;20037;-78
2022/01/26 03:07:58;;;;;;;73.32;31.05;;;2.90;99.90;;;;;;5067679;28;20105;-78
2022/01/26 03:10:37;;;;;;;77.93;31.15;;;2.90;99.90;;;;;;5066032;28;20113;-78
2022/01/26 03:13:09;;;;;;;75.95;30.90;;;3.00;99.90;;;;;;5061717;28;20178;-77
2022/01/26 03:15:44;;;;;;;72.57;30.42;;;3.00;99.90;;;;;;5071729;28;20054;-77
2022/01/26 03:20:38;;;;;;;68.23;28.90;;;2.90;99.90;;;;;;5067960;28;20040;-77
2022/01/26 03:28:46;;;;;;;77.38;31.27;;;2.90;99.90;;;;;;5071066;28;20063;-77
2022/01/26 03:36:29;;;;;;;68.38;28.55;;;2.90;99.90;;;;;;5062176;28;20135;-77
2022/01/26 03:39:03;;;;;;;64.45;27.48;;;2.90;99.90;;;;;;5060833;28;20500;-77
2022/01/26 03:41:42;;;;;;;72.60;31.15;;;2.90;99.90;;;;;;5064448;28;20052;-78
2022/01/26 03:44:08;;;;;;;70.22;29.20;;;2.90;99.90;;;;;;5051976;28;20439;-78
2022/01/26 03:46:34;;;;;;;60.40;24.88;;;2.90;99.90;;;;;;5035379;28;20040;-78
2022/01/26 03:49:00;;;;;;;64.68;27.77;;;2.90;99.90;;;;;;5082703;28;20044;-78
2022/01/26 03:51:26;;;;;;;68.88;28.58;;;2.90;99.90;;;;;;5063282;28;20060;-78
2022/01/26 03:53:52;;;;;;;69.55;30.33;;;2.90;99.90;;;;;;5057704;28;20041;-78
2022/01/26 03:56:18;;;;;;;64.80;28.10;;;2.90;99.90;;;;;;5058110;28;20053;-78
2022/01/26 03:58:44;;;;;;;69.95;27.95;;;2.90;99.90;;;;;;5063730;28;20085;-77
2022/01/26 04:01:10;;;;;;;57.53;24.48;;;2.90;99.90;;;;;;5053521;28;20055;-77
2022/01/26 04:03:35;;;;;;;54.58;23.35;;;2.90;99.90;;;;;;5070894;28;20051;-78
2022/01/26 04:06:01;;;;;;;65.90;27.42;;;2.90;99.90;;;;;;5072877;28;20483;-78
2022/01/26 04:08:30;;;;;;;61.45;26.75;;;2.90;99.90;;;;;;5053410;28;20024;-73
2022/01/26 04:13:22;;;;;;;59.30;26.00;;;2.90;99.90;;;;;;5068714;28;20049;-72
2022/01/26 04:15:48;;;;;;;58.00;24.48;;;2.90;99.90;;;;;;5068127;28;20068;-72
2022/01/26 04:18:19;;;;;;;56.05;24.52;;;2.90;99.90;;;;;;5063796;28;20044;-72
2022/01/26 04:20:49;;;;;;;70.07;28.45;;;2.90;99.90;;;;;;5061689;28;20098;-72
2022/01/26 04:23:36;;;;;;;61.13;26.80;;;2.80;99.90;;;;;;5052710;28;20105;-72
2022/01/26 04:26:02;;;;;;;64.43;26.48;;;2.80;99.90;;;;;;5052612;28;20039;-72
2022/01/26 04:28:37;;;;;;;62.42;27.30;;;2.90;99.90;;;;;;5042641;28;20036;-72
2022/01/26 04:31:02;;;;;;;57.65;24.83;;;2.80;99.90;;;;;;5046092;28;20032;-72
2022/01/26 04:33:32;;;;;;;50.43;21.70;;;2.80;99.90;;;;;;5054471;28;20047;-73
2022/01/26 04:35:57;;;;;;;61.53;26.48;;;2.80;99.90;;;;;;5053215;28;20339;-73
2022/01/26 04:38:34;;;;;;;58.57;26.10;;;2.80;99.90;;;;;;5067559;28;20437;-73
2022/01/26 04:43:29;;;;;;;63.35;26.15;;;2.90;99.90;;;;;;5057601;28;20045;-73
2022/01/26 04:45:55;;;;;;;62.67;26.58;;;2.80;99.90;;;;;;5069199;28;20116;-73
2022/01/26 04:48:21;;;;;;;66.40;27.90;;;2.80;99.90;;;;;;5065609;28;20187;-72
2022/01/26 04:50:47;;;;;;;59.15;24.45;;;2.80;99.90;;;;;;5069232;28;20040;-72
2022/01/26 04:53:12;;;;;;;61.97;26.45;;;2.80;99.90;;;;;;5058945;28;20392;-73
2022/01/26 04:55:38;;;;;;;59.20;26.10;;;2.80;99.90;;;;;;5067862;28;20048;-73
2022/01/26 04:58:04;;;;;;;59.70;26.27;;;2.80;99.90;;;;;;5067664;28;20045;-73
2022/01/26 05:00:30;;;;;;;60.97;24.67;;;2.80;99.90;;;;;;5066949;28;20137;-73
2022/01/26 05:02:55;;;;;;;60.20;25.48;;;2.80;99.90;;;;;;5051191;28;20306;-73
2022/01/26 05:05:21;;;;;;;57.10;23.93;;;2.70;99.90;;;;;;5051741;28;20032;-73
2022/01/26 05:07:47;;;;;;;54.83;23.47;;;2.70;99.90;;;;;;5056914;28;20323;-73
2022/01/26 05:10:12;;;;;;;59.95;26.35;;;2.80;99.90;;;;;;5044325;28;20271;-73
2022/01/26 05:12:39;;;;;;;57.47;23.67;;;2.70;99.90;;;;;;5025394;28;20056;-73
2022/01/26 05:15:05;;;;;;;58.40;26.48;;;2.80;99.90;;;;;;5062949;28;20045;-73
2022/01/26 05:17:31;;;;;;;61.13;25.45;;;2.70;99.90;;;;;;5038416;28;20032;-73
2022/01/26 05:19:59;;;;;;;57.65;24.55;;;2.70;99.90;;;;;;5037843;28;20495;-73
2022/01/26 05:22:25;;;;;;;58.55;25.38;;;2.80;99.90;;;;;;5064082;28;20051;-73
2022/01/26 05:24:52;;;;;;;57.67;25.13;;;2.80;99.90;;;;;;5016374;28;20041;-73
2022/01/26 05:27:19;;;;;;;63.45;24.35;;;2.80;99.90;;;;;;5067805;28;20087;-73
2022/01/26 05:29:44;;;;;;;53.25;23.17;;;2.70;99.90;;;;;;5072193;28;20044;-73
2022/01/26 05:32:10;;;;;;;59.72;25.00;;;2.70;99.90;;;;;;5051931;28;20094;-73
2022/01/26 05:34:36;;;;;;;55.05;22.95;;;2.70;99.90;;;;;;5055904;28;20040;-73
2022/01/26 05:37:02;;;;;;;58.30;25.58;;;2.70;99.90;;;;;;5071774;28;20082;-73
2022/01/26 05:39:27;;;;;;;56.05;24.23;;;2.70;99.90;;;;;;5063062;28;20041;-73
2022/01/26 05:41:53;;;;;;;50.53;22.23;;;2.70;99.90;;;;;;5058426;28;20040;-73
2022/01/26 05:44:19;;;;;;;60.45;24.98;;;2.70;99.90;;;;;;5057343;28;20033;-73
2022/01/26 05:46:48;;;;;;;45.83;18.95;;;2.60;99.90;;;;;;5063011;28;20041;-73
2022/01/26 05:49:16;;;;;;;55.65;23.35;;;2.70;99.90;;;;;;5066676;28;20028;-74
2022/01/26 05:51:45;;;;;;;58.83;24.15;;;2.70;99.90;;;;;;5067593;28;20038;-74
2022/01/26 05:54:11;;;;;;;55.13;24.15;;;2.70;99.90;;;;;;5065736;28;20056;-74
2022/01/26 05:56:37;;;;;;;58.25;24.58;;;2.70;99.90;;;;;;5052238;28;20065;-73
2022/01/26 05:59:03;;;;;;;49.05;19.67;;;2.70;99.90;;;;;;5057659;28;20107;-73
2022/01/26 06:01:29;;;;;;;58.75;24.20;;;2.70;99.90;;;;;;5062302;28;20496;-73
2022/01/26 06:03:54;;;;;;;47.78;20.77;;;2.60;99.90;;;;;;5053894;28;20044;-74
2022/01/26 06:06:20;;;;;;;57.47;24.63;;;2.70;99.90;;;;;;5071985;28;20033;-74
2022/01/26 06:08:47;;;;;;;60.30;24.70;;;2.70;99.90;;;;;;5061389;28;20060;-73
2022/01/26 06:11:13;;;;;;;59.97;24.15;;;2.70;99.90;;;;;;5064268;28;20037;-74
2022/01/26 06:13:38;;;;;;;59.33;26.17;;;2.70;99.90;;;;;;5053041;28;20059;-74
2022/01/26 06:16:04;;;;;;;48.97;22.08;;;2.70;99.90;;;;;;5042351;28;20291;-74
2022/01/26 06:18:30;;;;;;;55.60;24.55;;;2.70;99.90;;;;;;5061978;28;20036;-74
2022/01/26 06:20:56;;;;;;;58.22;25.27;;;2.70;99.90;;;;;;5047105;28;20121;-75
2022/01/26 06:23:24;;;;;;;58.00;24.48;;;2.70;99.90;;;;;;5062340;28;20059;-74
2022/01/26 06:25:52;;;;;;;53.90;23.80;;;2.70;99.90;;;;;;5043312;28;20529;-74
2022/01/26 06:28:17;;;;;;;57.35;25.05;;;2.70;99.90;;;;;;5049634;28;20492;-75
2022/01/26 06:30:46;;;;;;;59.45;25.98;;;2.70;99.90;;;;;;5065196;28;20127;-74
2022/01/26 06:33:13;;;;;;;66.35;26.60;;;2.70;99.90;;;;;;5068512;28;20160;-82
2022/01/26 06:35:39;;;;;;;58.83;24.65;;;2.70;99.90;;;;;;5068456;28;20076;-82
2022/01/26 06:38:05;;;;;;;60.80;26.05;;;2.70;99.90;;;;;;5053715;28;20040;-81
2022/01/26 06:40:30;;;;;;;51.38;22.80;;;2.70;99.90;;;;;;5038797;28;20524;-81
2022/01/26 06:43:03;;;;;;;54.10;24.05;;;2.80;99.90;;;;;;5068129;28;20051;-81
2022/01/26 06:45:33;;;;;;;61.15;26.23;;;2.70;99.90;;;;;;5070657;28;20040;-81
2022/01/26 06:50:40;;;;;;;58.83;25.75;;;2.70;99.90;;;;;;5069861;28;20118;-81
2022/01/26 06:53:06;;;;;;;62.45;27.60;;;2.70;99.90;;;;;;5062267;28;20049;-81
2022/01/26 06:55:33;;;;;;;59.53;27.13;;;2.70;99.90;;;;;;5071419;28;20067;-82
2022/01/26 06:57:59;;;;;;;59.40;26.70;;;2.80;99.90;;;;;;5048634;28;20044;-79
2022/01/26 07:00:25;;;;;;;58.65;25.45;;;2.80;99.90;;;;;;5068586;28;20045;-80
2022/01/26 07:02:52;;;;;;;57.83;24.48;;;2.70;99.90;;;;;;5070440;28;20618;-81
2022/01/26 07:05:18;;;;;;;60.58;27.40;;;2.70;99.90;;;;;;5072041;28;20083;-80
2022/01/26 07:07:43;;;;;;;60.92;26.13;;;2.80;99.90;;;;;;5067510;28;20396;-81
2022/01/26 07:10:09;;;;;;;59.97;25.98;;;2.80;99.90;;;;;;5066939;28;20171;-80
2022/01/26 07:12:35;;;;;;;63.85;27.00;;;2.70;99.90;;;;;;5072435;28;20360;-79
2022/01/26 07:23:05;;;;;;;61.97;27.05;;;2.80;99.90;;;;;;5065445;28;20098;-81
2022/01/26 07:25:32;;;;;;;60.00;27.70;;;2.80;99.90;;;;;;5052829;28;20048;-81
2022/01/26 07:27:58;;;;;;;64.88;28.30;;;2.80;99.90;;;;;;5075200;28;20662;-78
2022/01/26 07:30:24;;;;;;;;;;;2.80;99.90;;;;;;5070699;28;20064;-77
2022/01/26 07:32:50;;;;;;;59.90;26.90;;;2.80;99.90;;;;;;5063288;28;19916;-81
2022/01/26 07:35:15;;;;;;;70.95;29.27;;;2.80;99.90;;;;;;5073469;28;20045;-77
2022/01/26 07:37:44;;;;;;;66.80;28.77;;;2.90;99.90;;;;;;5069756;28;20040;-77
2022/01/26 07:40:10;;;;;;;61.05;27.75;;;2.90;99.90;;;;;;5055022;28;20131;-79
2022/01/26 07:42:37;;;;;;;67.93;28.90;;;2.90;99.90;;;;;;5073144;28;20044;-78
2022/01/26 07:45:08;;;;;;;65.70;27.65;;;2.90;99.90;;;;;;5055697;28;20043;-79
2022/01/26 07:47:36;;;;;;;61.05;28.02;;;2.90;99.90;;;;;;5069082;28;20043;-79
2022/01/26 07:50:06;;;;;;;69.28;29.33;;;2.90;99.90;;;;;;5045245;28;20083;-78
2022/01/26 07:52:35;;;;;;;67.43;29.90;;;2.90;99.90;;;;;;5062436;28;20037;-78
2022/01/26 07:55:01;;;;;;;65.80;29.80;;;3.00;99.90;;;;;;5089145;28;20052;-79
2022/01/26 07:57:27;;;;;;;64.45;28.98;;;3.00;99.90;;;;;;5071918;28;20037;-80
2022/01/26 07:59:53;;;;;;;50.05;22.48;;;2.90;99.90;;;;;;5072903;28;20039;-81
2022/01/26 08:02:21;;;;;;;62.75;28.70;;;2.90;99.90;;;;;;5055099;28;20033;-80
2022/01/26 08:04:47;;;;;;;61.22;28.30;;;3.00;99.90;;;;;;5059841;28;20086;-80
2022/01/26 08:07:12;;;;;;;68.93;29.90;;;2.90;99.90;;;;;;5077485;28;20458;-76
2022/01/26 08:09:44;;;;;;;68.45;30.83;;;3.00;99.90;;;;;;5062841;28;20040;-79
2022/01/26 08:12:17;;;;;;;66.25;29.60;;;3.00;99.90;;;;;;5053510;28;20193;-74
2022/01/26 08:14:43;;;;;;;68.68;31.77;;;3.00;99.90;;;;;;5051858;28;20061;-74
2022/01/26 08:17:10;;;;;;;60.53;27.33;;;3.00;99.90;;;;;;5068863;28;20059;-74
2022/01/26 08:19:36;;;;;;;68.60;31.13;;;3.00;99.90;;;;;;5069797;28;20438;-74
2022/01/26 08:22:03;;;;;;;;;;;3.00;99.90;;;;;;5053435;28;20042;-74
2022/01/26 08:24:29;;;;;;;66.57;29.95;;;3.00;99.90;;;;;;5069863;28;20430;-74
2022/01/26 08:26:58;;;;;;;;;;;3.10;99.90;;;;;;5054681;28;20044;-74
2022/01/26 08:29:30;;;;;;;61.80;28.73;;;3.10;99.90;;;;;;5069992;28;19917;-73
2022/01/26 08:31:56;;;;;;;71.10;31.58;;;3.10;99.90;;;;;;5056336;28;20032;-74
2022/01/26 08:34:22;;;;;;;79.55;34.35;;;3.10;99.90;;;;;;5070863;28;20407;-75
2022/01/26 08:36:48;;;;;;;75.90;34.50;;;3.10;99.90;;;;;;5070412;28;20120;-74
2022/01/26 08:39:14;;;;;;;74.88;33.55;;;3.20;99.90;;;;;;5069926;28;20048;-74
2022/01/26 08:41:43;;;;;;;73.00;33.25;;;3.20;99.90;;;;;;5038221;28;20044;-74
2022/01/26 08:44:08;;;;;;;74.18;34.92;;;3.20;99.90;;;;;;5053388;28;20192;-74
2022/01/26 08:46:35;;;;;;;73.05;34.25;;;3.20;99.90;;;;;;5054459;28;20070;-74
2022/01/26 08:49:01;;;;;;;69.13;32.58;;;3.20;99.90;;;;;;5037492;28;20036;-74
2022/01/26 08:51:27;;;;;;;72.82;33.30;;;3.30;99.90;;;;;;5069430;28;20158;-74
2022/01/26 08:53:52;;;;;;;74.05;33.80;;;3.30;99.90;;;;;;5052521;28;20028;-73
2022/01/26 08:56:18;;;;;;;72.35;34.40;;;3.30;99.90;;;;;;5035693;28;20091;-74
2022/01/26 08:58:44;;;;;;;72.07;32.92;;;3.30;99.90;;;;;;5052408;28;20044;-74
2022/01/26 09:01:09;;;;;;;77.57;35.13;;;3.30;99.90;;;;;;5068378;28;20507;-74
2022/01/26 09:03:39;;;;;;;75.53;34.88;;;3.30;99.90;;;;;;5068992;28;20052;-74
2022/01/26 09:06:09;;;;;;;75.85;35.75;;;3.40;99.90;;;;;;5069127;28;20037;-74
2022/01/26 09:08:38;;;;;;;80.97;36.72;;;3.40;99.90;;;;;;5052268;28;20043;-74
2022/01/26 09:11:03;;;;;;;74.03;34.70;;;3.40;99.90;;;;;;5068857;28;20047;-74
2022/01/26 09:13:31;;;;;;;68.25;33.22;;;3.40;99.90;;;;;;5069104;28;20040;-74
2022/01/26 09:15:57;;;;;;;68.40;32.22;;;3.40;99.90;;;;;;5070369;28;20340;-74
2022/01/26 09:18:34;;;;;;;74.40;35.58;;;3.40;99.90;;;;;;5070051;28;20040;-74
2022/01/26 09:21:00;;;;;;;70.35;32.55;;;3.50;99.90;;;;;;5070810;28;20043;-74
2022/01/26 09:23:25;;;;;;;74.57;33.95;;;3.50;99.90;;;;;;5052783;28;20049;-74
2022/01/26 09:25:51;;;;;;;74.43;35.40;;;3.50;99.90;;;;;;5070129;28;20049;-78
2022/01/26 09:28:17;;;;;;;70.22;34.40;;;3.50;99.90;;;;;;5071109;28;20036;-78
2022/01/26 09:30:42;;;;;;;71.85;34.95;;;3.50;99.90;;;;;;5054832;28;20043;-78
2022/01/26 09:33:08;;;;;;;74.25;34.50;;;3.60;99.90;;;;;;5071624;28;20045;-79
2022/01/26 09:35:34;;;;;;;72.03;33.70;;;3.60;99.90;;;;;;5054552;28;20120;-78
2022/01/26 09:37:59;;;;;;;70.85;33.25;;;3.70;99.90;;;;;;5071671;28;20068;-78
2022/01/26 09:40:25;;;;;;;66.15;32.90;;;3.70;99.90;;;;;;5071582;28;20052;-78
2022/01/26 09:42:52;;;;;;;71.13;33.75;;;3.70;99.90;;;;;;5070643;28;20041;-78
2022/01/26 09:45:18;;;;;;;64.18;31.55;;;3.80;99.90;;;;;;5054317;28;20047;-78
2022/01/26 09:47:44;;;;;;;69.20;32.08;;;3.80;99.90;;;;;;5037292;28;20079;-78
2022/01/26 09:50:10;;;;;;;;;;;3.90;99.90;;;;;;5071309;28;20044;-78
2022/01/26 09:52:41;;;;;;;65.60;31.30;;;3.90;99.90;;;;;;5070743;28;19924;-78
2022/01/26 09:55:09;;;;;;;70.55;33.38;;;3.90;99.90;;;;;;5054187;28;20052;-78
2022/01/26 09:57:38;;;;;;;61.03;30.55;;;3.90;99.90;;;;;;5053901;28;20365;-79
2022/01/26 10:00:06;;;;;;;68.18;32.15;;;4.00;99.90;;;;;;5070711;28;20464;-79
2022/01/26 10:02:34;;;;;;;60.85;30.23;;;4.00;99.90;;;;;;5053756;28;20419;-78
2022/01/26 10:05:08;;;;;;;66.65;32.78;;;4.00;99.90;;;;;;5070345;28;20051;-78
2022/01/26 10:18:39;;;;;;;59.30;29.75;;;4.20;99.90;;;;;;5055555;28;20044;-78
2022/01/26 10:21:08;;;;;;;64.80;30.42;;;4.20;99.90;;;;;;5087178;28;20053;-78
2022/01/26 10:23:38;;;;;;;60.55;29.52;;;4.20;99.90;;;;;;5072955;28;20041;-78
2022/01/26 10:26:08;;;;;;;61.90;31.02;;;4.20;99.90;;;;;;5074731;28;20044;-79
2022/01/26 10:29:03;;;;;;;66.13;30.38;;;4.30;99.90;;;;;;5074751;28;20048;-78
2022/01/26 10:31:34;;;;;;;57.00;29.48;;;4.20;99.90;;;;;;5107280;28;20135;-78
2022/01/26 10:34:01;;;;;;;60.35;30.52;;;4.30;99.90;;;;;;5073969;28;20047;-78
2022/01/26 10:36:35;;;;;;;59.55;29.80;;;4.30;99.90;;;;;;5064179;28;20180;-77
2022/01/26 10:39:13;;;;;;;65.90;31.42;;;4.30;99.90;;;;;;5068034;28;20055;-78
2022/01/26 10:41:42;;;;;;;58.67;29.45;;;4.30;99.90;;;;;;5073049;28;20129;-78
2022/01/26 10:44:08;;;;;;;60.42;29.67;;;4.30;99.90;;;;;;5073619;28;20101;-78
2022/01/26 10:46:38;;;;;;;58.45;28.75;;;4.30;99.90;;;;;;5074126;28;20514;-78
2022/01/26 10:51:53;;;;;;;57.35;27.92;;;4.40;99.90;;;;;;5073737;28;20472;-78
2022/01/26 10:54:41;;;;;;;60.22;27.15;;;4.40;99.90;;;;;;5073912;28;20048;-78
2022/01/26 10:57:10;;;;;;;55.28;27.58;;;4.40;99.90;;;;;;5041922;28;20049;-78
2022/01/26 10:59:39;;;;;;;47.95;25.35;;;4.40;99.90;;;;;;5073366;28;20077;-78
2022/01/26 11:02:06;;;;;;;52.05;26.50;;;4.40;99.90;;;;;;5073817;28;20055;-78
2022/01/26 11:04:34;;;;;;;56.03;27.05;;;4.50;99.90;;;;;;5037143;28;20044;-78
2022/01/26 11:07:02;;;;;;;49.67;25.75;;;4.40;99.90;;;;;;5067411;28;20165;-78
2022/01/26 11:09:30;;;;;;;51.55;25.00;;;4.40;99.90;;;;;;5074111;28;20032;-78
2022/01/26 11:12:05;;;;;;;47.42;24.85;;;4.30;99.90;;;;;;5073970;28;20033;-78
2022/01/26 11:14:44;;;;;;;59.15;26.65;;;4.30;99.90;;;;;;5073507;28;20036;-78
2022/01/26 11:17:22;;;;;;;51.47;25.42;;;4.20;99.90;;;;;;5057255;28;20094;-78
2022/01/26 11:19:48;;;;;;;56.30;27.15;;;4.20;99.90;;;;;;5069195;28;20070;-77
2022/01/26 11:22:15;;;;;;;54.45;25.45;;;4.20;99.90;;;;;;5061508;28;20097;-78
2022/01/26 11:24:41;;;;;;;;;;;4.20;99.90;;;;;;5056008;28;20131;-78
2022/01/26 11:27:07;;;;;;;52.60;26.20;;;4.20;99.90;;;;;;5056377;28;20351;-78
2022/01/26 11:29:36;;;;;;;52.13;24.92;;;4.20;99.90;;;;;;5072679;28;20062;-78
2022/01/26 11:32:10;;;;;;;57.28;27.33;;;4.20;99.90;;;;;;5073256;28;20063;-78
2022/01/26 11:34:36;;;;;;;50.90;25.58;;;4.20;99.90;;;;;;5073258;28;20090;-78
2022/01/26 11:37:04;;;;;;;58.88;26.38;;;4.20;99.90;;;;;;5072699;28;20177;-76
2022/01/26 11:45:34;;;;;;;59.08;26.60;;;4.30;99.90;;;;;;5055683;28;20119;-78
2022/01/26 11:48:23;;;;;;;55.70;28.80;;;4.40;99.90;;;;;;5053336;28;20376;-77
2022/01/26 11:50:58;;;;;;;57.65;28.05;;;4.40;99.90;;;;;;5065829;28;20407;-77
2022/01/26 11:53:26;;;;;;;56.40;27.63;;;4.40;99.90;;;;;;5072948;28;20045;-77
2022/01/26 11:56:00;;;;;;;58.67;28.33;;;4.40;99.90;;;;;;5072874;28;20092;-78
2022/01/26 11:58:29;;;;;;;54.10;26.13;;;4.30;99.90;;;;;;5063797;28;20110;-77
2022/01/26 12:01:20;;;;;;;60.55;27.27;;;4.30;99.90;;;;;;5049951;28;20041;-78
2022/01/26 12:04:04;;;;;;;54.28;26.83;;;4.30;99.90;;;;;;5073097;28;20130;-77
2022/01/26 12:06:47;;;;;;;56.42;27.58;;;4.30;99.90;;;;;;5055353;28;20090;-77
2022/01/26 12:09:13;;;;;;;56.55;27.90;;;4.30;99.90;;;;;;5071862;28;20044;-77
2022/01/26 12:11:39;;;;;;;58.45;28.50;;;4.30;99.90;;;;;;5071233;28;20040;-77
2022/01/26 12:14:10;;;;;;;66.10;30.48;;;4.30;99.90;;;;;;5072382;28;20043;-77
2022/01/26 12:16:44;;;;;;;56.90;27.90;;;4.30;99.90;;;;;;5056052;28;20044;-77
2022/01/26 12:19:25;;;;;;;57.97;29.08;;;4.30;99.90;;;;;;5072473;28;20803;-78
2022/01/26 12:35:58;;;;;;;57.72;28.50;;;4.50;99.90;;;;;;5071612;28;20043;-77
2022/01/26 12:38:45;;;;;;;53.65;26.00;;;4.50;99.90;;;;;;5072442;28;20098;-78
2022/01/26 12:41:24;;;;;;;59.43;27.87;;;4.40;99.90;;;;;;5056386;28;20048;-77
2022/01/26 12:43:55;;;;;;;55.17;27.65;;;4.50;99.90;;;;;;5088999;28;20044;-77
2022/01/26 12:46:27;;;;;;;56.47;26.77;;;4.40;99.90;;;;;;5071548;28;20040;-77
2022/01/26 12:48:59;;;;;;;56.45;27.05;;;4.50;99.90;;;;;;5071626;28;20150;-78
2022/01/26 12:51:29;;;;;;;60.90;28.23;;;4.50;99.90;;;;;;5067673;28;20058;-78
2022/01/26 12:54:01;;;;;;;54.05;26.73;;;4.50;99.90;;;;;;5053364;28;20047;-76
2022/01/26 12:56:30;;;;;;;58.83;27.55;;;4.50;99.90;;;;;;5072446;28;20108;-80
2022/01/26 12:59:01;;;;;;;59.63;28.42;;;4.50;99.90;;;;;;5073388;28;20508;-80
2022/01/26 13:01:27;;;;;;;62.97;28.05;;;4.60;99.90;;;;;;5055738;28;20126;-81
2022/01/26 13:03:58;;;;;;;55.83;28.10;;;4.50;99.90;;;;;;5075682;28;20107;-80
2022/01/26 13:06:28;;;;;;;55.58;26.70;;;4.60;99.90;;;;;;5052256;28;20472;-80
2022/01/26 13:08:56;;;;;;;53.58;26.10;;;4.60;99.90;;;;;;5089389;28;20064;-78
2022/01/26 13:11:28;;;;;;;54.53;26.50;;;4.60;99.90;;;;;;5069808;28;20041;-77
2022/01/26 13:14:24;;;;;;;56.95;26.80;;;4.60;99.90;;;;;;5066022;28;20450;-78
2022/01/26 13:23:08;;;;;;;60.83;28.33;;;4.80;99.90;;;;;;5065840;28;20041;-78
2022/01/26 13:28:33;;;;;;;54.88;26.90;;;4.90;99.90;;;;;;5067408;28;20418;-79
2022/01/26 13:52:16;;;;;;;48.75;25.52;;;5.00;99.90;;;;;;5065420;28;20037;-77
2022/01/26 14:00:16;;;;;;;51.63;23.60;;;5.20;99.90;;;;;;5070223;28;20471;-77
2022/01/26 14:02:42;;;;;;;46.45;23.70;;;5.20;99.90;;;;;;5053775;28;20025;-78
2022/01/26 14:05:09;;;;;;;52.15;24.95;;;5.20;99.90;;;;;;5071945;28;20361;-77
2022/01/26 14:07:34;;;;;;;45.92;22.92;;;5.30;99.90;;;;;;5065848;28;20531;-77
2022/01/26 14:10:00;;;;;;;45.90;23.13;;;5.20;99.90;;;;;;5057076;28;20036;-78
2022/01/26 14:12:31;;;;;;;54.92;23.92;;;5.20;99.90;;;;;;5074874;28;20043;-78
2022/01/26 14:14:57;;;;;;;49.58;24.15;;;5.30;99.90;;;;;;5067785;28;20045;-78
2022/01/26 14:17:35;;;;;;;41.25;22.63;;;5.30;99.90;;;;;;5051846;28;20052;-78
2022/01/26 14:27:23;;;;;;;47.03;22.30;;;5.30;99.90;;;;;;5068246;28;20443;-79
2022/01/26 14:30:04;;;;;;;47.33;22.27;;;5.30;99.90;;;;;;5067368;28;20036;-78
2022/01/26 14:40:47;;;;;;;48.65;22.85;;;5.30;99.90;;;;;;5090004;28;20044;-77
2022/01/26 14:51:40;;;;;;;50.92;23.75;;;5.30;99.90;;;;;;5067280;28;20051;-77
2022/01/26 15:40:09;;;;;;;47.17;22.35;;;5.40;99.90;;;;;;5058111;28;20814;-78
2022/01/26 15:42:45;;;;;;;46.85;24.42;;;5.40;99.90;;;;;;5054162;28;20052;-78
2022/01/26 16:18:36;;;;;;;46.10;22.98;;;5.50;99.90;;;;;;5071976;28;20041;-79
2022/01/26 17:48:02;;;;;;;36.08;17.98;;;5.60;99.90;;;;;;5060121;28;20044;-78
2022/01/26 18:04:13;;;;;;;39.95;18.42;;;5.70;99.90;;;;;;5073837;28;20505;-78
2022/01/26 18:17:59;;;;;;;33.72;18.48;;;5.80;99.90;;;;;;5059468;28;20487;-77
2022/01/26 18:26:31;;;;;;;33.28;17.65;;;5.80;99.90;;;;;;5074554;28;20048;-77
2022/01/26 18:32:18;;;;;;;32.63;18.08;;;5.90;99.90;;;;;;5055750;28;20083;-81
2022/01/26 18:51:03;;;;;;;32.30;16.13;;;6.10;99.90;;;;;;5078338;28;20067;-81
2022/01/26 18:53:29;;;;;;;28.70;15.52;;;6.10;99.90;;;;;;5034322;28;20047;-81
2022/01/26 18:55:55;;;;;;;31.65;15.85;;;6.10;99.90;;;;;;5055794;28;20091;-80
2022/01/26 18:58:21;;;;;;;28.45;15.60;;;6.10;99.90;;;;;;5054601;28;20045;-79
2022/01/26 19:00:46;;;;;;;30.77;16.98;;;6.10;99.90;;;;;;5049026;28;20056;-79
2022/01/26 19:03:13;;;;;;;30.60;15.63;;;6.20;99.90;;;;;;5061510;28;20091;-78
2022/01/26 19:05:39;;;;;;;28.38;15.85;;;6.20;99.90;;;;;;5072639;28;20148;-79
2022/01/26 19:08:06;;;;;;;34.22;17.45;;;6.20;99.90;;;;;;5048726;28;20049;-76
2022/01/26 19:10:32;;;;;;;30.17;15.98;;;6.20;99.90;;;;;;5062313;28;20032;-73
2022/01/26 19:12:58;;;;;;;28.90;15.82;;;6.20;99.90;;;;;;5070679;28;20048;-74
2022/01/26 19:15:28;;;;;;;33.22;16.27;;;6.20;99.90;;;;;;5072249;28;20521;-73
2022/01/26 19:18:10;;;;;;;29.50;15.73;;;6.20;99.90;;;;;;5055089;28;20102;-74
2022/01/26 19:20:46;;;;;;;31.30;16.35;;;6.20;99.90;;;;;;5040983;28;20040;-73
2022/01/26 19:26:08;;;;;;;27.38;15.20;;;6.20;99.90;;;;;;5064672;28;20039;-75
2022/01/26 19:28:39;;;;;;;28.88;16.30;;;6.20;99.90;;;;;;5055497;28;20052;-73
2022/01/26 19:40:15;;;;;;;29.80;15.85;;;6.30;99.90;;;;;;5050000;28;20053;-73
2022/01/26 19:52:38;;;;;;;28.88;15.93;;;6.30;99.90;;;;;;5050234;28;20045;-74
2022/01/26 19:55:04;;;;;;;32.08;16.58;;;6.30;99.90;;;;;;5060933;28;20052;-74
2022/01/26 19:57:30;;;;;;;28.17;16.60;;;6.30;99.90;;;;;;5064373;28;20056;-76